Time;durP1;ratioP1;P1;durP2;ratioP2;P2;SDS_P1;SDS_P2;PMS_P1;PMS_P2;Temp;Humidity;BMP_temperature;BMP_pressure;BME280_temperature;BME280_humidity;BME280_pressure;Samples;Min_cycle;Max_cycle;Signal;HPM_P1;HPM_P2
2022/02/19 00:00:24;;;;;;;17.40;5.50;;;;;;;8.37;73.00;97657.27;105933;1276;107079;-75
2022/02/19 00:03:09;;;;;;;14.00;5.80;;;;;;;8.40;72.76;97667.84;105629;1277;138636;-75
2022/02/19 00:05:41;;;;;;;18.70;6.40;;;;;;;8.41;72.87;97654.23;106002;1276;97860;-74
2022/02/19 00:08:14;;;;;;;15.50;6.00;;;;;;;8.41;72.36;97686.81;105850;1276;137725;-74
2022/02/19 00:10:46;;;;;;;15.10;5.90;;;;;;;8.41;72.44;97669.34;105993;1276;111404;-73
2022/02/19 00:13:18;;;;;;;11.50;5.00;;;;;;;8.41;72.46;97669.52;105943;1276;109116;-75
2022/02/19 00:15:50;;;;;;;12.70;5.50;;;;;;;8.43;72.19;97676.32;105745;1275;138437;-74
2022/02/19 00:18:22;;;;;;;13.20;5.30;;;;;;;8.47;72.02;97685.75;105961;1274;97844;-74
2022/02/19 00:20:59;;;;;;;16.20;5.20;;;;;;;8.50;72.36;97677.08;105828;1276;137538;-74
2022/02/19 00:23:31;;;;;;;12.40;5.70;;;;;;;8.51;72.02;97669.94;105926;1274;112592;-74
2022/02/19 00:26:03;;;;;;;12.90;5.60;;;;;;;8.52;72.12;97676.98;106008;1274;137872;-75
2022/02/19 00:28:35;;;;;;;14.60;5.90;;;;;;;8.53;71.86;97672.05;106010;1276;108809;-75
2022/02/19 00:31:08;;;;;;;10.50;5.00;;;;;;;8.54;71.91;97678.02;106021;1276;97902;-75
2022/02/19 00:33:40;;;;;;;12.70;5.10;;;;;;;8.55;71.64;97672.08;105793;1277;138529;-74
2022/02/19 00:36:12;;;;;;;14.20;4.00;;;;;;;8.58;71.43;97665.97;105924;1275;111129;-75
2022/02/19 00:38:44;;;;;;;13.50;4.90;;;;;;;8.65;70.96;97657.43;105727;1274;138179;-73
2022/02/19 00:41:16;;;;;;;13.90;4.40;;;;;;;8.72;70.66;97673.59;105951;1274;107864;-75
2022/02/19 00:43:50;;;;;;;12.90;5.00;;;;;;;8.78;70.78;97655.13;105837;1274;139373;-74
2022/02/19 00:46:22;;;;;;;10.70;4.70;;;;;;;8.81;70.64;97673.84;105962;1274;97851;-75
2022/02/19 00:48:54;;;;;;;11.50;4.50;;;;;;;8.85;70.01;97685.02;105967;1274;112608;-75
2022/02/19 00:51:26;;;;;;;10.50;3.80;;;;;;;8.88;70.31;97703.02;105870;1274;138074;-75
2022/02/19 00:53:58;;;;;;;7.30;3.40;;;;;;;8.91;70.19;97736.25;105991;1274;107661;-76
2022/02/19 00:56:30;;;;;;;6.00;2.20;;;;;;;8.92;70.06;97790.42;105815;1274;138182;-75
2022/02/19 00:59:03;;;;;;;5.20;1.80;;;;;;;8.81;67.95;97777.46;107592;1274;96065;-75
2022/02/19 01:01:37;;;;;;;3.80;1.70;;;;;;;8.64;64.98;97767.79;106999;1274;111440;-74
2022/02/19 01:04:32;;;;;;;3.80;1.70;;;;;;;8.54;63.39;97770.39;106001;1274;108043;-76
2022/02/19 01:07:04;;;;;;;3.10;1.10;;;;;;;8.44;61.47;97751.23;105959;1273;109004;-76
2022/02/19 01:09:38;;;;;;;5.40;1.30;;;;;;;8.38;60.10;97763.71;105867;1274;137793;-75
2022/02/19 01:12:11;;;;;;;4.90;1.20;;;;;;;8.36;59.78;97792.90;105947;1273;97948;-76
2022/02/19 01:14:43;;;;;;;3.20;1.20;;;;;;;8.36;60.85;97786.00;105800;1275;137350;-75
2022/02/19 01:17:16;;;;;;;2.80;1.00;;;;;;;8.34;61.19;97792.02;105923;1275;109327;-75
2022/02/19 01:19:48;;;;;;;3.30;1.20;;;;;;;8.30;60.23;97798.80;105959;1274;109141;-74
2022/02/19 01:22:20;;;;;;;5.00;1.30;;;;;;;8.28;59.69;97801.04;105887;1274;137344;-74
2022/02/19 01:24:52;;;;;;;3.10;1.30;;;;;;;8.26;60.29;97808.77;106102;1274;97892;-76
2022/02/19 01:27:24;;;;;;;4.70;1.30;;;;;;;8.24;59.77;97811.48;105869;1274;137667;-75
2022/02/19 01:29:58;;;;;;;5.30;1.30;;;;;;;8.23;59.69;97814.84;106040;1274;107540;-74
2022/02/19 01:32:30;;;;;;;3.70;1.30;;;;;;;8.20;60.25;97830.95;105823;1275;137436;-74
2022/02/19 01:35:02;;;;;;;4.10;1.10;;;;;;;8.16;61.18;97818.56;105929;1274;97884;-74
2022/02/19 01:37:34;;;;;;;5.00;1.00;;;;;;;8.10;60.78;97819.26;105891;1275;97997;-74
2022/02/19 01:40:08;;;;;;;6.10;1.30;;;;;;;8.05;61.13;97828.06;105802;1276;137890;-75
2022/02/19 01:42:44;;;;;;;3.70;1.30;;;;;;;8.00;60.77;97820.09;106851;1274;107831;-73
2022/02/19 01:45:17;;;;;;;3.20;1.30;;;;;;;7.94;61.18;97827.21;105820;1274;137460;-74
2022/02/19 01:47:49;;;;;;;5.10;1.00;;;;;;;7.87;61.44;97842.09;105946;1274;97844;-74
2022/02/19 01:50:23;;;;;;;4.30;1.50;;;;;;;7.82;61.26;97834.11;105814;1274;138508;-73
2022/02/19 01:52:55;;;;;;;4.30;1.40;;;;;;;7.77;61.47;97842.85;105870;1275;112533;-74
2022/02/19 01:55:34;;;;;;;3.80;1.50;;;;;;;7.73;61.09;97840.00;106091;1273;108928;-73
2022/02/19 01:58:15;;;;;;;3.50;1.50;;;;;;;7.70;60.99;97841.01;105875;1274;137408;-74
2022/02/19 02:01:03;;;;;;;6.40;1.40;;;;;;;7.69;60.43;97834.55;105969;1273;97948;-74
2022/02/19 02:04:02;;;;;;;2.80;1.00;;;;;;;7.68;58.72;97835.30;105837;1274;137323;-74
2022/02/19 02:06:35;;;;;;;5.30;1.60;;;;;;;7.68;58.22;97845.30;105929;1276;112709;-73
2022/02/19 02:09:08;;;;;;;4.60;1.20;;;;;;;7.69;57.68;97845.62;105855;1274;138428;-73
2022/02/19 02:11:42;;;;;;;3.70;1.30;;;;;;;7.68;57.57;97853.94;105889;1274;108811;-73
2022/02/19 02:14:15;;;;;;;3.50;0.90;;;;;;;7.67;58.07;97877.56;105781;1276;138156;-72
2022/02/19 02:17:12;;;;;;;;;;;;;;;7.62;58.03;97875.77;105948;1274;97848;-73
2022/02/19 02:19:44;;;;;;;4.80;1.30;;;;;;;7.58;57.22;97874.83;105900;1274;112863;-72
2022/02/19 02:22:21;;;;;;;3.80;1.00;;;;;;;7.55;57.46;97888.64;106202;1274;137425;-73
2022/02/19 02:24:55;;;;;;;3.20;0.80;;;;;;;7.53;56.78;97895.13;107594;1274;108728;-73
2022/02/19 02:27:46;;;;;;;4.10;1.00;;;;;;;7.51;55.90;97889.71;107337;1274;137827;-73
2022/02/19 02:30:19;;;;;;;6.40;1.20;;;;;;;7.50;55.51;97895.77;107648;1274;96935;-73
2022/02/19 02:32:54;;;;;;;4.30;1.30;;;;;;;7.50;54.96;97899.94;107377;1274;137296;-73
2022/02/19 02:35:27;;;;;;;3.40;1.10;;;;;;;7.51;54.65;97903.36;107302;1274;317437;-73
2022/02/19 02:37:59;;;;;;;8.90;1.50;;;;;;;7.51;54.23;97915.28;107476;1274;107819;-73
2022/02/19 02:40:31;;;;;;;7.10;1.10;;;;;;;7.51;54.11;97914.95;107402;1274;138869;-73
2022/02/19 02:43:05;;;;;;;5.00;1.40;;;;;;;7.52;54.08;97935.48;107029;1276;97835;-73
2022/02/19 02:45:37;;;;;;;6.50;1.30;;;;;;;7.50;54.32;97934.20;105845;1274;138377;-72
2022/02/19 02:48:28;;;;;;;2.70;0.90;;;;;;;7.50;54.56;97933.17;105889;1275;108926;-73
2022/02/19 02:51:01;;;;;;;4.40;1.30;;;;;;;7.48;54.65;97934.85;105955;1274;138396;-74
2022/02/19 02:53:52;;;;;;;4.60;1.30;;;;;;;7.46;54.53;97941.34;107253;1273;97598;-73
2022/02/19 02:56:24;;;;;;;4.60;1.00;;;;;;;7.46;54.70;97949.46;106618;1276;138628;-73
2022/02/19 02:58:56;;;;;;;4.90;0.80;;;;;;;7.46;54.82;97944.45;107507;1274;112235;-73
2022/02/19 03:01:28;;;;;;;4.10;1.20;;;;;;;7.46;54.75;97951.89;106543;1273;107211;-74
2022/02/19 03:04:01;;;;;;;4.60;1.10;;;;;;;7.47;54.02;97957.55;105736;1274;138728;-73
2022/02/19 03:06:33;;;;;;;6.00;1.30;;;;;;;7.49;54.37;97953.15;106858;1274;95963;-72
2022/02/19 03:09:05;;;;;;;3.60;1.30;;;;;;;7.48;54.20;97955.25;107377;1274;137820;-73
2022/02/19 03:11:37;;;;;;;5.90;1.30;;;;;;;7.46;54.22;97962.95;106954;1274;112670;-73
2022/02/19 03:14:10;;;;;;;2.90;1.30;;;;;;;7.44;54.11;97964.48;105778;1274;137319;-74
2022/02/19 03:16:42;;;;;;;3.80;1.10;;;;;;;7.42;54.28;97969.59;105942;1274;108851;-73
2022/02/19 03:19:15;;;;;;;5.40;1.20;;;;;;;7.40;53.53;97964.34;105946;1272;97874;-72
2022/02/19 03:21:47;;;;;;;4.90;1.40;;;;;;;7.40;53.92;97967.47;107000;1274;137343;-74
2022/02/19 03:24:19;;;;;;;3.60;1.20;;;;;;;7.39;53.48;97961.45;106466;1274;111539;-74
2022/02/19 03:26:51;;;;;;;2.00;1.10;;;;;;;7.39;53.89;97969.76;105840;1274;137504;-72
2022/02/19 03:29:24;;;;;;;5.90;1.30;;;;;;;7.36;53.49;97971.12;105696;1276;108334;-73
2022/02/19 03:31:57;;;;;;;6.90;1.30;;;;;;;7.34;53.30;97979.52;105973;1273;97811;-74
2022/02/19 03:34:33;;;;;;;4.00;1.30;;;;;;;7.33;52.82;97982.02;105867;1274;138623;-74
2022/02/19 03:37:07;;;;;;;5.00;1.40;;;;;;;7.32;53.06;97989.98;105877;1275;112591;-73
2022/02/19 03:39:39;;;;;;;4.80;1.30;;;;;;;7.31;52.55;97987.46;105754;1274;137565;-73
2022/02/19 03:42:12;;;;;;;6.40;1.30;;;;;;;7.32;52.85;97991.60;105929;1274;108749;-74
2022/02/19 03:44:44;;;;;;;6.40;1.50;;;;;;;7.31;52.50;97991.61;106080;1274;137525;-73
2022/02/19 03:47:20;;;;;;;4.20;1.20;;;;;;;7.32;52.73;98009.75;107503;1274;95809;-73
2022/02/19 03:50:07;;;;;;;5.20;1.30;;;;;;;7.31;52.10;98006.16;107509;1273;111551;-74
2022/02/19 03:52:40;;;;;;;5.90;1.00;;;;;;;7.30;51.65;98012.80;107371;1274;137368;-74
2022/02/19 03:55:13;;;;;;;4.60;1.10;;;;;;;7.28;50.98;98023.05;107541;1273;108910;-74
2022/02/19 03:57:45;;;;;;;3.30;1.00;;;;;;;7.27;51.13;98038.85;107331;1274;138286;-73
2022/02/19 04:00:19;;;;;;;4.00;1.10;;;;;;;7.24;48.60;98011.38;106306;1274;97710;-74
2022/02/19 04:02:52;;;;;;;3.00;0.90;;;;;;;7.21;48.65;98038.48;106141;1274;137664;-74
2022/02/19 04:05:28;;;;;;;7.00;0.90;;;;;;;7.16;48.36;98032.67;107505;1274;109067;-74
2022/02/19 04:08:00;;;;;;;6.80;1.20;;;;;;;7.11;48.65;98052.85;107452;1274;108962;-74
2022/02/19 04:10:34;;;;;;;4.20;0.80;;;;;;;7.06;48.95;98053.33;107350;1274;137363;-73
2022/02/19 04:13:06;;;;;;;5.70;1.30;;;;;;;7.02;48.97;98051.29;107460;1276;95883;-74
2022/02/19 04:16:01;;;;;;;4.70;1.10;;;;;;;6.99;49.57;98060.58;106502;1274;137882;-74
2022/02/19 04:18:35;;;;;;;4.10;1.30;;;;;;;6.95;49.96;98063.88;105891;1274;108990;-73
2022/02/19 04:21:08;;;;;;;4.30;1.40;;;;;;;6.92;49.96;98065.08;105700;1274;137623;-73
2022/02/19 04:23:40;;;;;;;5.10;1.00;;;;;;;6.89;50.61;98065.44;105930;1276;97841;-73
2022/02/19 04:26:14;;;;;;;3.90;0.90;;;;;;;6.86;51.20;98071.83;105876;1275;98234;-73
2022/02/19 04:28:49;;;;;;;5.40;1.20;;;;;;;6.82;51.35;98074.95;105769;1274;137109;-73
2022/02/19 04:31:30;;;;;;;4.50;1.20;;;;;;;6.77;51.43;98066.75;106105;1273;109099;-73
2022/02/19 04:34:14;;;;;;;6.30;1.20;;;;;;;6.72;51.75;98074.60;106013;1274;138260;-73
2022/02/19 04:36:50;;;;;;;4.90;1.30;;;;;;;6.69;52.24;98084.29;107360;1273;96096;-74
2022/02/19 04:39:25;;;;;;;4.50;1.10;;;;;;;6.65;52.50;98088.92;105957;1274;137145;-74
2022/02/19 04:41:58;;;;;;;6.70;1.30;;;;;;;6.62;52.81;98094.95;105857;1274;110529;-74
2022/02/19 04:44:31;;;;;;;5.10;1.20;;;;;;;6.59;53.32;98094.76;105891;1274;137680;-73
2022/02/19 04:47:03;;;;;;;4.10;1.50;;;;;;;6.56;53.75;98095.27;106670;1275;107821;-73
2022/02/19 04:49:35;;;;;;;7.20;1.20;;;;;;;6.55;54.13;98098.45;105941;1274;98455;-74
2022/02/19 04:52:08;;;;;;;5.40;1.60;;;;;;;6.52;54.29;98102.54;105798;1274;137366;-73
2022/02/19 04:54:42;;;;;;;7.60;1.70;;;;;;;6.50;53.57;98084.36;105972;1274;111387;-74
2022/02/19 04:57:20;;;;;;;6.30;1.60;;;;;;;6.52;52.90;98091.15;106309;1273;138812;-75
2022/02/19 04:59:52;;;;;;;5.60;1.30;;;;;;;6.56;52.54;98084.39;107477;1274;108531;-74
2022/02/19 05:02:30;;;;;;;8.70;1.50;;;;;;;6.59;52.63;98091.45;107304;1274;137807;-73
2022/02/19 05:05:02;;;;;;;7.00;1.60;;;;;;;6.61;52.86;98092.39;107486;1273;95823;-73
2022/02/19 05:07:35;;;;;;;6.60;1.40;;;;;;;6.64;52.67;98092.63;107515;1273;111438;-73
2022/02/19 05:10:09;;;;;;;6.40;1.80;;;;;;;6.65;51.59;98092.90;107371;1274;137461;-74
2022/02/19 05:12:42;;;;;;;10.60;1.70;;;;;;;6.69;51.39;98097.59;106367;1274;108816;-72
2022/02/19 05:15:17;;;;;;;6.30;1.50;;;;;;;6.70;50.77;98081.80;105725;1274;137572;-72
2022/02/19 05:17:58;;;;;;;8.80;1.70;;;;;;;6.70;51.33;98102.66;107443;1273;96193;-73
2022/02/19 05:20:31;;;;;;;7.00;1.50;;;;;;;6.69;50.85;98099.11;107045;1273;137823;-72
2022/02/19 05:23:03;;;;;;;8.90;1.30;;;;;;;6.69;49.97;98104.65;106003;1274;108486;-73
2022/02/19 05:25:40;;;;;;;8.90;1.70;;;;;;;6.71;50.63;98110.77;105788;1275;109043;-74
2022/02/19 05:28:14;;;;;;;10.00;1.50;;;;;;;6.69;50.38;98108.25;105848;1273;137336;-73
2022/02/19 05:30:46;;;;;;;6.40;1.50;;;;;;;6.70;50.10;98113.21;105852;1274;99011;-73
2022/02/19 05:33:41;;;;;;;6.00;1.60;;;;;;;6.70;50.52;98111.85;105542;1274;137550;-73
2022/02/19 05:36:14;;;;;;;8.60;1.60;;;;;;;6.69;50.56;98113.27;105834;1274;108137;-73
2022/02/19 05:38:46;;;;;;;8.00;1.40;;;;;;;6.68;49.83;98116.44;105712;1274;137557;-74
2022/02/19 05:41:18;;;;;;;5.50;1.40;;;;;;;6.66;50.47;98119.44;105811;1274;97975;-73
2022/02/19 05:43:50;;;;;;;7.80;1.40;;;;;;;6.65;50.02;98125.37;106011;1274;97867;-74
2022/02/19 05:46:23;;;;;;;6.40;1.70;;;;;;;6.63;49.57;98131.49;105725;1274;138409;-73
2022/02/19 05:48:55;;;;;;;9.00;1.70;;;;;;;6.62;48.94;98135.33;105931;1274;108776;-73
2022/02/19 05:51:42;;;;;;;5.20;1.70;;;;;;;6.61;48.39;98127.11;105733;1273;138422;-73
2022/02/19 05:54:20;;;;;;;6.90;1.60;;;;;;;6.60;47.80;98126.66;105845;1275;97874;-73
2022/02/19 05:56:56;;;;;;;5.90;1.60;;;;;;;6.58;48.33;98137.63;105786;1274;139042;-72
2022/02/19 05:59:28;;;;;;;8.70;1.90;;;;;;;6.56;48.23;98132.56;105956;1274;111358;-73
2022/02/19 06:02:01;;;;;;;5.80;1.70;;;;;;;6.52;48.39;98132.23;106004;1274;107651;-73
2022/02/19 06:04:33;;;;;;;8.90;2.00;;;;;;;6.49;47.44;98145.70;105850;1274;138518;-73
2022/02/19 06:07:07;;;;;;;6.90;1.40;;;;;;;6.47;47.72;98154.07;105844;1274;97928;-73
2022/02/19 06:09:39;;;;;;;8.00;1.70;;;;;;;6.46;47.47;98158.77;105789;1274;137456;-73
2022/02/19 06:12:12;;;;;;;6.80;1.20;;;;;;;6.45;47.15;98151.91;106030;1274;111496;-72
2022/02/19 06:15:00;;;;;;;6.40;1.50;;;;;;;6.45;46.77;98160.89;105828;1274;137478;-73
2022/02/19 06:17:43;;;;;;;6.00;1.70;;;;;;;6.45;46.28;98156.40;105964;1275;108940;-73
2022/02/19 06:20:15;;;;;;;5.40;1.70;;;;;;;6.44;46.17;98163.16;106070;1273;98257;-73
2022/02/19 06:22:47;;;;;;;9.00;1.80;;;;;;;6.44;46.49;98167.00;105806;1275;137313;-73
2022/02/19 06:25:19;;;;;;;8.00;1.50;;;;;;;6.43;46.90;98158.58;105872;1274;112783;-72
2022/02/19 06:27:53;;;;;;;7.30;1.60;;;;;;;6.41;47.07;98170.23;105768;1274;137538;-74
2022/02/19 06:30:29;;;;;;;5.60;1.50;;;;;;;6.40;46.91;98175.28;105895;1274;107588;-73
2022/02/19 06:33:08;;;;;;;10.40;1.90;;;;;;;6.39;46.64;98163.97;105834;1274;137967;-73
2022/02/19 06:35:40;;;;;;;8.60;1.70;;;;;;;6.38;46.41;98167.26;105985;1273;97835;-74
2022/02/19 06:38:15;;;;;;;;;;;;;;;6.39;46.31;98183.48;105852;1275;111436;-73
2022/02/19 06:40:48;;;;;;;8.60;2.10;;;;;;;6.36;46.58;98173.75;105806;1276;123855;-73
2022/02/19 06:43:20;;;;;;;7.70;1.90;;;;;;;6.35;46.22;98185.56;105757;1276;108937;-73
2022/02/19 06:45:56;;;;;;;8.20;1.90;;;;;;;6.35;45.09;98169.65;105855;1276;137246;-73
2022/02/19 06:48:28;;;;;;;5.30;1.30;;;;;;;6.37;46.06;98180.10;105930;1274;98374;-72
2022/02/19 06:51:00;;;;;;;8.00;1.80;;;;;;;6.38;45.89;98171.59;105625;1276;138150;-73
2022/02/19 06:53:32;;;;;;;7.40;1.80;;;;;;;6.39;46.43;98184.33;105787;1274;108910;-74
2022/02/19 06:56:04;;;;;;;8.10;1.80;;;;;;;6.39;45.35;98167.95;105897;1276;109045;-73
2022/02/19 06:58:36;;;;;;;6.60;1.80;;;;;;;6.40;46.08;98159.10;105846;1276;138236;-74
2022/02/19 07:01:09;;;;;;;4.10;1.60;;;;;;;6.41;45.81;98155.73;105824;1276;97839;-74
2022/02/19 07:03:42;;;;;;;5.80;1.90;;;;;;;6.44;45.74;98164.54;105693;1276;138584;-74
2022/02/19 07:06:34;;;;;;;5.60;2.10;;;;;;;6.46;45.96;98153.91;105920;1276;107931;-74
2022/02/19 07:09:06;;;;;;;5.80;1.70;;;;;;;6.49;45.56;98162.63;105872;1274;137639;-75
2022/02/19 07:11:38;;;;;;;10.80;1.70;;;;;;;6.52;46.01;98151.39;105890;1276;98688;-75
2022/02/19 07:14:11;;;;;;;7.40;1.80;;;;;;;6.56;45.91;98163.83;105876;1276;97821;-74
2022/02/19 07:16:43;;;;;;;5.50;1.30;;;;;;;6.60;45.09;98147.20;105707;1276;137373;-75
2022/02/19 07:19:16;;;;;;;6.80;1.80;;;;;;;6.64;44.97;98161.87;107546;1274;106166;-74
2022/02/19 07:21:48;;;;;;;8.50;1.60;;;;;;;6.68;44.67;98166.35;106905;1277;137379;-75
2022/02/19 07:24:20;;;;;;;7.70;1.50;;;;;;;6.68;44.56;98174.46;105857;1276;97864;-75
2022/02/19 07:26:52;;;;;;;5.60;1.50;;;;;;;6.68;44.26;98165.65;105797;1276;137747;-74
2022/02/19 07:29:24;;;;;;;6.20;1.70;;;;;;;6.70;44.17;98164.54;105718;1276;112393;-75
2022/02/19 07:31:57;;;;;;;5.50;1.60;;;;;;;6.70;44.59;98165.70;105862;1276;108115;-76
2022/02/19 07:34:29;;;;;;;6.30;1.60;;;;;;;6.71;44.47;98163.77;105708;1275;137371;-76
2022/02/19 07:37:01;;;;;;;4.00;1.50;;;;;;;6.71;44.60;98169.98;105869;1276;101661;-76
2022/02/19 07:39:34;;;;;;;9.80;1.60;;;;;;;6.72;44.25;98179.45;105850;1275;138911;-75
2022/02/19 07:42:10;;;;;;;6.60;1.70;;;;;;;6.72;43.98;98175.64;105877;1275;112114;-76
2022/02/19 07:45:06;;;;;;;8.00;1.60;;;;;;;6.72;44.65;98187.39;105799;1274;137484;-77
2022/02/19 07:47:57;;;;;;;5.20;1.40;;;;;;;6.72;44.39;98197.02;105982;1276;107615;-77
2022/02/19 08:00:17;;;;;;;6.50;1.80;;;;;;;6.76;44.26;98196.67;105904;1276;107786;-75
2022/02/19 08:02:51;;;;;;;6.80;1.60;;;;;;;6.76;44.35;98203.44;107303;1276;137887;-75
2022/02/19 08:05:23;;;;;;;7.20;1.70;;;;;;;6.77;44.85;98209.04;107366;1276;97016;-75
2022/02/19 08:07:55;;;;;;;6.80;1.50;;;;;;;6.83;45.31;98205.50;107398;1276;96021;-75
2022/02/19 08:10:27;;;;;;;7.50;1.50;;;;;;;6.86;45.29;98211.89;107251;1276;138007;-75
2022/02/19 08:12:59;;;;;;;7.80;1.90;;;;;;;6.90;45.26;98214.79;107586;1276;107795;-74
2022/02/19 08:15:31;;;;;;;7.90;1.80;;;;;;;7.03;45.15;98231.09;107406;1274;137485;-75
2022/02/19 08:18:04;;;;;;;6.40;1.50;;;;;;;7.42;44.90;98219.61;107529;1274;96236;-75
2022/02/19 08:20:37;;;;;;;4.50;1.30;;;;;;;7.79;43.88;98222.83;107445;1274;137611;-75
2022/02/19 08:23:11;;;;;;;6.20;1.50;;;;;;;8.21;43.38;98235.13;107555;1274;111447;-76
2022/02/19 08:25:44;;;;;;;3.70;1.30;;;;;;;9.16;42.79;98236.15;107581;1274;107857;-75
2022/02/19 08:28:16;;;;;;;5.60;1.50;;;;;;;10.46;40.48;98240.52;107370;1276;138318;-75
2022/02/19 08:30:50;;;;;;;5.60;1.60;;;;;;;10.64;39.99;98237.89;107534;1275;95905;-76
2022/02/19 08:33:22;;;;;;;5.30;1.80;;;;;;;10.51;39.23;98246.19;107426;1276;137567;-76
2022/02/19 08:35:54;;;;;;;7.10;1.70;;;;;;;10.62;39.21;98269.10;107509;1275;112365;-75
2022/02/19 08:38:26;;;;;;;3.60;1.50;;;;;;;10.45;38.20;98244.85;107504;1274;108913;-75
2022/02/19 08:40:58;;;;;;;5.30;1.80;;;;;;;10.20;38.71;98244.77;107477;1274;137396;-75
2022/02/19 08:43:30;;;;;;;7.80;1.80;;;;;;;10.53;39.41;98228.82;107544;1274;96007;-75
2022/02/19 08:46:02;;;;;;;4.30;1.20;;;;;;;10.67;38.94;98246.38;107203;1274;137934;-75
2022/02/19 08:48:34;;;;;;;5.60;1.60;;;;;;;11.39;37.38;98242.10;107631;1274;113186;-76
2022/02/19 08:51:07;;;;;;;7.40;1.70;;;;;;;12.00;37.23;98246.98;107422;1274;137871;-75
2022/02/19 08:53:39;;;;;;;6.20;1.60;;;;;;;12.00;37.81;98260.70;107559;1273;107959;-75
2022/02/19 08:56:11;;;;;;;7.10;1.40;;;;;;;12.13;35.85;98250.41;107513;1273;96249;-75
2022/02/19 08:58:45;;;;;;;4.80;1.50;;;;;;;12.26;35.54;98251.99;107467;1273;137532;-76
2022/02/19 09:01:17;;;;;;;5.50;1.50;;;;;;;12.77;35.16;98243.23;107612;1273;111699;-76
2022/02/19 09:03:49;;;;;;;6.20;1.60;;;;;;;13.46;34.54;98233.23;106229;1274;137714;-75
2022/02/19 09:06:22;;;;;;;5.00;1.40;;;;;;;13.74;33.35;98250.98;105932;1274;107687;-75
2022/02/19 09:08:54;;;;;;;6.40;1.50;;;;;;;13.71;33.16;98244.91;107470;1274;138767;-75
2022/02/19 09:11:26;;;;;;;8.20;1.60;;;;;;;13.96;32.79;98260.00;106046;1274;97937;-75
2022/02/19 09:13:58;;;;;;;6.50;1.60;;;;;;;14.00;32.30;98242.70;106025;1274;112643;-76
2022/02/19 09:16:33;;;;;;;7.90;1.90;;;;;;;14.22;33.08;98249.71;105782;1274;137765;-75
2022/02/19 09:19:07;;;;;;;8.10;2.00;;;;;;;14.39;32.71;98257.05;105989;1274;107544;-75
2022/02/19 09:21:40;;;;;;;9.90;1.90;;;;;;;14.40;32.02;98268.73;105955;1274;137630;-74
2022/02/19 09:24:12;;;;;;;9.00;1.50;;;;;;;14.38;31.61;98295.41;106038;1274;97927;-74
2022/02/19 09:26:44;;;;;;;5.50;1.50;;;;;;;14.40;31.19;98253.19;105938;1274;137837;-74
2022/02/19 09:29:16;;;;;;;5.50;1.60;;;;;;;14.42;31.20;98259.29;106121;1273;109112;-74
2022/02/19 09:31:48;;;;;;;7.50;1.60;;;;;;;14.52;31.59;98259.06;106021;1274;108902;-75
2022/02/19 09:34:22;;;;;;;8.70;1.60;;;;;;;14.51;30.87;98247.52;105853;1273;137620;-75
2022/02/19 09:36:54;;;;;;;3.30;1.20;;;;;;;14.54;31.73;98290.54;105964;1274;97849;-74
2022/02/19 09:39:26;;;;;;;3.60;1.40;;;;;;;14.10;31.35;98297.09;105791;1274;137629;-74
2022/02/19 09:42:02;;;;;;;3.10;1.30;;;;;;;13.68;32.13;98304.20;106037;1274;108894;-74
2022/02/19 09:44:34;;;;;;;3.10;1.50;;;;;;;13.08;32.11;98311.47;105865;1273;138146;-73
2022/02/19 09:47:08;;;;;;;7.10;1.50;;;;;;;12.44;33.34;98312.17;105925;1274;97835;-73
2022/02/19 09:49:42;;;;;;;6.30;1.30;;;;;;;12.04;34.75;98324.40;106060;1273;98423;-74
2022/02/19 09:52:14;;;;;;;6.70;1.40;;;;;;;11.57;35.28;98306.50;105824;1274;138063;-74
2022/02/19 09:54:46;;;;;;;5.10;1.60;;;;;;;11.12;35.47;98339.76;105967;1274;108270;-74
2022/02/19 09:57:19;;;;;;;5.70;1.50;;;;;;;10.71;36.19;98335.08;107009;1274;138560;-74
2022/02/19 09:59:51;;;;;;;6.50;1.40;;;;;;;10.43;36.81;98342.37;105920;1275;97877;-73
2022/02/19 10:02:32;;;;;;;7.50;1.60;;;;;;;10.10;37.15;98328.91;106277;1274;97723;-74
2022/02/19 10:05:15;;;;;;;5.90;1.20;;;;;;;9.84;37.96;98343.52;107520;1274;137411;-74
2022/02/19 10:08:02;;;;;;;4.70;1.20;;;;;;;9.84;38.68;98359.66;107569;1273;108928;-74
2022/02/19 10:10:35;;;;;;;6.70;1.30;;;;;;;9.79;38.87;98388.45;107405;1276;139589;-73
2022/02/19 10:13:27;;;;;;;5.00;1.40;;;;;;;9.88;38.59;98355.08;107576;1273;95912;-74
2022/02/19 10:15:59;;;;;;;6.80;1.40;;;;;;;9.93;38.63;98370.27;107463;1273;137504;-74
2022/02/19 10:18:33;;;;;;;6.30;1.70;;;;;;;10.03;39.14;98387.54;107604;1273;111486;-74
2022/02/19 10:21:19;;;;;;;5.50;1.30;;;;;;;10.60;38.48;98363.76;107484;1274;138630;-74
2022/02/19 10:23:53;;;;;;;7.50;1.50;;;;;;;11.08;37.60;98383.16;107549;1274;108879;-74
2022/02/19 10:26:30;;;;;;;5.70;1.40;;;;;;;11.16;37.35;98370.46;107581;1274;95989;-74
2022/02/19 10:29:02;;;;;;;;;;;;;;;10.92;36.68;98396.85;107538;1274;138043;-74
2022/02/19 10:31:35;;;;;;;6.00;1.20;;;;;;;10.47;37.58;98408.16;107469;1274;112498;-74
2022/02/19 10:34:09;;;;;;;5.10;1.60;;;;;;;10.03;38.30;98410.42;107494;1274;138218;-74
2022/02/19 10:36:48;;;;;;;7.60;1.70;;;;;;;9.61;39.06;98412.37;107599;1274;108895;-74
2022/02/19 10:39:27;;;;;;;6.50;1.70;;;;;;;9.21;39.97;98422.45;107468;1273;138534;-74
2022/02/19 10:42:04;;;;;;;4.40;1.50;;;;;;;8.87;40.54;98427.09;107618;1273;95884;-74
2022/02/19 10:44:38;;;;;;;4.10;1.40;;;;;;;8.77;41.17;98426.23;106499;1273;111296;-73
2022/02/19 10:47:22;;;;;;;5.70;1.40;;;;;;;9.05;41.21;98431.17;105838;1274;137281;-73
2022/02/19 10:50:13;;;;;;;4.60;1.30;;;;;;;9.29;40.60;98410.21;105981;1273;110019;-73
2022/02/19 10:52:58;;;;;;;8.40;2.00;;;;;;;9.15;40.77;98429.55;105844;1274;137458;-74
2022/02/19 10:55:31;;;;;;;4.00;1.80;;;;;;;9.10;41.30;98446.99;106008;1274;97835;-74
2022/02/19 10:58:07;;;;;;;5.90;1.60;;;;;;;9.04;41.16;98433.42;105910;1274;137351;-74
2022/02/19 11:00:40;;;;;;;9.40;1.80;;;;;;;8.89;41.37;98450.59;107600;1274;107515;-74
2022/02/19 11:03:13;;;;;;;5.30;1.40;;;;;;;8.72;41.74;98444.54;107009;1273;138117;-73
2022/02/19 11:05:45;;;;;;;5.80;1.40;;;;;;;8.56;42.09;98472.10;107588;1274;96145;-74
2022/02/19 11:08:22;;;;;;;5.70;1.40;;;;;;;8.41;42.62;98453.80;107567;1273;95985;-74
2022/02/19 11:10:57;;;;;;;4.30;1.20;;;;;;;8.28;42.78;98461.20;107487;1273;137298;-74
2022/02/19 11:13:32;;;;;;;9.80;1.40;;;;;;;8.20;43.28;98472.52;107636;1273;109174;-75
2022/02/19 11:16:05;;;;;;;4.80;1.00;;;;;;;8.18;43.46;98477.98;107427;1274;137605;-74
2022/02/19 11:18:38;;;;;;;3.70;1.10;;;;;;;8.18;43.09;98450.42;107561;1274;96090;-74
2022/02/19 11:21:32;;;;;;;4.30;1.60;;;;;;;8.14;43.46;98485.60;105970;1274;137388;-73
2022/02/19 11:24:10;;;;;;;4.70;1.40;;;;;;;8.07;43.71;98487.70;105044;1274;112737;-73
2022/02/19 11:26:45;;;;;;;4.90;1.60;;;;;;;7.99;43.93;98498.19;105098;1274;107590;-75
2022/02/19 11:29:22;;;;;;;4.10;1.40;;;;;;;7.98;44.27;98507.02;104939;1274;137427;-74
2022/02/19 11:31:57;;;;;;;10.50;1.70;;;;;;;8.01;44.15;98508.09;106110;1274;98586;-74
2022/02/19 11:34:32;;;;;;;5.30;1.60;;;;;;;8.06;44.41;98525.49;106538;1274;139539;-72
2022/02/19 11:37:18;;;;;;;7.40;1.90;;;;;;;8.05;44.19;98525.90;106559;1274;113286;-72
2022/02/19 11:40:11;;;;;;;9.10;1.90;;;;;;;7.94;44.11;98530.95;106482;1274;138345;-74
2022/02/19 11:42:53;;;;;;;4.60;1.70;;;;;;;7.86;44.69;98553.10;106624;1273;109195;-74
2022/02/19 11:45:30;;;;;;;4.80;1.60;;;;;;;7.79;44.63;98524.36;106536;1273;138132;-74
2022/02/19 11:48:29;;;;;;;4.40;1.60;;;;;;;7.68;45.00;98561.92;106652;1274;96334;-74
2022/02/19 11:51:21;;;;;;;7.50;1.80;;;;;;;7.53;45.24;98563.86;106574;1274;137627;-73
2022/02/19 11:54:06;;;;;;;3.80;1.40;;;;;;;7.39;45.52;98561.74;106600;1276;108011;-73
2022/02/19 11:56:42;;;;;;;4.30;1.40;;;;;;;7.29;45.99;98591.96;106628;1274;105458;-74
2022/02/19 11:59:21;;;;;;;3.50;1.60;;;;;;;7.20;46.09;98594.92;106985;1273;138636;-74
2022/02/19 12:02:16;;;;;;;8.10;1.60;;;;;;;7.14;46.47;98585.18;107636;1273;95697;-74
2022/02/19 12:05:17;;;;;;;5.80;1.60;;;;;;;7.08;46.90;98585.46;107457;1273;137490;-74
2022/02/19 12:08:02;;;;;;;4.60;1.50;;;;;;;7.04;47.07;98594.65;107581;1273;108819;-73
2022/02/19 12:11:14;;;;;;;7.10;1.60;;;;;;;7.02;47.36;98611.98;107493;1274;137365;-74
2022/02/19 12:13:47;;;;;;;6.50;1.40;;;;;;;7.05;47.44;98630.17;107483;1276;96297;-74